Terminal Aerodrome Forecast
Issued by NWS Corpus Christi, TX

Current Version | Previous Version | Text Only | Print | Product List | Glossary On
Versions: 1 2 3 4 5 6 7 8 9 10 11 12 13 14 15
000
FTUS44 KCRP 161700
TAFCRP
TAF
KCRP 161721Z 1618/1718 13013G20KT P6SM SCT040
     FM170300 13010KT P6SM BKN030
     FM170800 13008KT P6SM BKN015
      TEMPO 1708/1712 3SM BR=

USA.gov is the U.S. government's official web portal to all federal, state and local government web resources and services.